createdAt,value
2017-11-15T00:00:30.700Z,31.90
2017-11-15T00:02:58.262Z,36.30
2017-11-15T00:05:25.926Z,46.30
2017-11-15T00:07:53.490Z,32.00
2017-11-15T00:10:21.053Z,30.53
2017-11-15T00:12:48.613Z,31.17
2017-11-15T00:15:16.277Z,33.23
2017-11-15T00:17:43.847Z,35.00
2017-11-15T00:20:11.425Z,30.07
2017-11-15T00:22:38.987Z,23.13
2017-11-15T00:25:06.621Z,28.53
2017-11-15T00:27:34.187Z,27.13
2017-11-15T00:30:01.757Z,26.70
2017-11-15T00:32:29.329Z,26.93
2017-11-15T00:34:56.898Z,25.27
2017-11-15T00:37:24.473Z,31.10
2017-11-15T00:39:52.086Z,33.67
2017-11-15T00:42:19.654Z,31.30
2017-11-15T00:44:47.281Z,34.20
2017-11-15T00:47:14.855Z,31.27
2017-11-15T00:49:42.422Z,41.90
2017-11-15T00:52:10.099Z,28.63
2017-11-15T00:54:37.658Z,26.87
2017-11-15T00:57:05.234Z,32.57
2017-11-15T00:59:32.802Z,43.47
2017-11-15T01:02:00.435Z,32.20
2017-11-15T01:04:28.106Z,31.90
2017-11-15T01:06:55.677Z,31.80
2017-11-15T01:09:23.328Z,38.33
2017-11-15T01:11:50.898Z,30.60
2017-11-15T01:14:18.470Z,31.63
2017-11-15T01:16:46.030Z,33.27
2017-11-15T01:19:13.633Z,34.23
2017-11-15T01:21:41.191Z,34.60
2017-11-15T01:24:08.789Z,34.43
2017-11-15T01:26:36.375Z,35.73
2017-11-15T01:29:03.939Z,28.53
2017-11-15T01:31:31.535Z,30.40
2017-11-15T01:33:59.100Z,33.27
2017-11-15T01:36:26.662Z,32.60
2017-11-15T01:38:54.231Z,29.33
2017-11-15T01:41:21.799Z,33.30
2017-11-15T01:43:49.362Z,31.03
2017-11-15T01:46:16.966Z,33.93
2017-11-15T01:48:45.034Z,34.70
2017-11-15T01:51:12.590Z,40.57
2017-11-15T01:53:40.198Z,38.37
2017-11-15T01:56:07.758Z,29.40
2017-11-15T01:58:35.353Z,32.60
2017-11-15T02:01:13.948Z,29.30
2017-11-15T02:03:41.546Z,26.43
2017-11-15T02:06:09.115Z,29.40
2017-11-15T02:08:36.686Z,44.87
2017-11-15T02:11:04.327Z,38.03
2017-11-15T02:13:31.893Z,34.93
2017-11-15T02:15:59.512Z,28.63
2017-11-15T02:18:27.104Z,44.80
2017-11-15T02:20:54.738Z,27.70
2017-11-15T02:23:22.332Z,33.17
2017-11-15T02:25:50.709Z,34.40
2017-11-15T02:28:18.309Z,35.90
2017-11-15T02:30:46.646Z,39.00
2017-11-15T02:33:14.842Z,41.23
2017-11-15T02:35:42.484Z,30.90
2017-11-15T02:38:10.052Z,30.87
2017-11-15T02:40:37.715Z,40.27
2017-11-15T02:43:05.291Z,37.17
2017-11-15T02:45:32.851Z,45.00
2017-11-15T02:48:00.417Z,36.33
2017-11-15T02:50:27.989Z,42.33
2017-11-15T02:52:55.540Z,43.97
2017-11-15T02:55:23.172Z,33.37
2017-11-15T02:57:50.775Z,46.17
2017-11-15T03:00:19.156Z,36.43
2017-11-15T03:02:46.718Z,44.00
2017-11-15T03:05:14.278Z,37.80
2017-11-15T03:07:41.837Z,43.30
2017-11-15T03:10:09.564Z,35.57
2017-11-15T03:12:37.134Z,36.70
2017-11-15T03:15:04.786Z,49.50
2017-11-15T03:17:32.389Z,44.07
2017-11-15T03:20:00.804Z,42.80
2017-11-15T03:22:28.386Z,41.17
2017-11-15T03:24:56.966Z,41.13
2017-11-15T03:27:24.529Z,47.70
2017-11-15T03:29:52.989Z,45.27
2017-11-15T03:32:20.545Z,49.17
2017-11-15T03:34:48.110Z,44.10
2017-11-15T03:37:15.665Z,41.43
2017-11-15T03:39:43.242Z,55.93
2017-11-15T03:42:10.815Z,57.37
2017-11-15T03:44:39.168Z,55.87
2017-11-15T03:47:06.740Z,50.10
2017-11-15T03:49:35.206Z,48.57
2017-11-15T03:52:02.810Z,47.60
2017-11-15T03:54:30.373Z,46.73
2017-11-15T03:56:57.939Z,52.73
2017-11-15T03:59:25.505Z,50.83
2017-11-15T04:01:53.074Z,45.90
2017-11-15T04:04:20.708Z,61.17
2017-11-15T04:06:48.276Z,43.73
2017-11-15T04:09:15.845Z,48.87
2017-11-15T04:11:43.489Z,54.70
2017-11-15T04:14:12.118Z,45.80
2017-11-15T04:16:39.681Z,47.70
2017-11-15T04:19:07.241Z,42.43
2017-11-15T04:21:34.860Z,58.57
2017-11-15T04:24:02.425Z,47.60
2017-11-15T04:26:29.986Z,41.90
2017-11-15T04:28:57.557Z,49.23
2017-11-15T04:31:25.125Z,43.40
2017-11-15T04:33:52.690Z,40.63
2017-11-15T04:36:20.330Z,42.17
2017-11-15T04:38:48.684Z,45.13
2017-11-15T04:41:17.181Z,35.43
2017-11-15T04:43:44.800Z,31.50
2017-11-15T04:46:12.361Z,40.10
2017-11-15T04:48:39.957Z,32.83
2017-11-15T04:51:07.532Z,42.20
2017-11-15T04:53:36.007Z,39.83
2017-11-15T04:56:03.585Z,40.37
2017-11-15T04:58:31.158Z,33.70
2017-11-15T05:00:58.721Z,38.43
2017-11-15T05:03:26.277Z,42.30
2017-11-15T05:05:53.922Z,37.77
2017-11-15T05:08:21.520Z,40.10
2017-11-15T05:10:49.084Z,35.50
2017-11-15T05:13:16.704Z,38.13
2017-11-15T05:15:44.269Z,40.57
2017-11-15T05:18:11.834Z,33.37
2017-11-15T05:20:39.407Z,42.67
2017-11-15T05:23:06.988Z,32.57
2017-11-15T05:25:34.549Z,31.50
2017-11-15T05:28:03.052Z,36.37
2017-11-15T05:30:30.660Z,28.30
2017-11-15T05:32:58.228Z,35.97
2017-11-15T05:35:26.705Z,32.80
2017-11-15T05:37:54.277Z,34.97
2017-11-15T05:40:21.880Z,35.67
2017-11-15T05:42:49.443Z,38.30
2017-11-15T05:45:17.006Z,33.17
2017-11-15T05:47:44.568Z,31.40
2017-11-15T05:50:12.133Z,36.83
2017-11-15T05:52:39.690Z,45.67
2017-11-15T05:55:07.253Z,35.87
2017-11-15T05:57:34.814Z,34.83
2017-11-15T06:00:02.370Z,39.10
2017-11-15T06:02:34.383Z,36.23
2017-11-15T06:05:02.044Z,31.30
2017-11-15T06:07:29.697Z,30.67
2017-11-15T06:09:57.333Z,40.37
2017-11-15T06:12:24.995Z,34.23
2017-11-15T06:14:52.577Z,35.00
2017-11-15T06:17:20.146Z,37.63
2017-11-15T06:19:47.742Z,36.00
2017-11-15T06:22:15.309Z,40.07
2017-11-15T06:24:42.922Z,40.33
2017-11-15T06:27:10.463Z,37.90
2017-11-15T06:29:38.101Z,43.03
2017-11-15T06:32:05.804Z,38.47
2017-11-15T06:34:33.484Z,32.30
2017-11-15T06:37:01.058Z,37.03
2017-11-15T06:39:28.568Z,35.70
2017-11-15T06:41:56.135Z,41.80
2017-11-15T06:44:23.701Z,34.20
2017-11-15T06:46:51.282Z,37.63
2017-11-15T06:49:18.864Z,41.03
2017-11-15T06:51:46.516Z,40.10
2017-11-15T06:54:14.084Z,42.70
2017-11-15T06:56:41.654Z,41.97
2017-11-15T06:59:10.005Z,42.87
2017-11-15T07:01:38.679Z,39.53
2017-11-15T07:04:06.238Z,47.37
2017-11-15T07:06:33.838Z,38.43
2017-11-15T07:09:01.402Z,47.50
2017-11-15T07:11:29.004Z,38.97
2017-11-15T07:13:56.565Z,51.70
2017-11-15T07:16:24.171Z,54.42
2017-11-15T07:18:51.738Z,43.47
2017-11-15T07:21:19.382Z,40.43
2017-11-15T07:23:46.945Z,51.90
2017-11-15T07:26:14.601Z,54.33
2017-11-15T07:28:42.205Z,41.60
2017-11-15T07:31:10.643Z,52.83
2017-11-15T07:33:38.210Z,39.70
2017-11-15T07:36:05.776Z,42.07
2017-11-15T07:38:33.431Z,50.10
2017-11-15T07:41:01.013Z,40.43
2017-11-15T07:43:28.660Z,54.57
2017-11-15T07:45:56.229Z,53.80
2017-11-15T07:48:23.806Z,42.17
2017-11-15T07:50:51.433Z,53.03
2017-11-15T07:53:19.821Z,40.87
2017-11-15T07:55:48.301Z,42.13
2017-11-15T07:58:15.870Z,45.50
2017-11-15T08:00:43.487Z,48.53
2017-11-15T08:03:11.050Z,46.70
2017-11-15T08:05:38.614Z,37.97
2017-11-15T08:08:07.132Z,42.10
2017-11-15T08:10:34.706Z,53.40
2017-11-15T08:13:02.273Z,43.60
2017-11-15T08:15:29.845Z,36.53
2017-11-15T08:17:57.469Z,44.97
2017-11-15T08:20:25.032Z,46.00
2017-11-15T08:22:52.603Z,46.93
2017-11-15T08:25:20.178Z,39.43
2017-11-15T08:27:47.812Z,40.60
2017-11-15T08:30:15.474Z,35.10
2017-11-15T08:32:43.146Z,35.83
2017-11-15T08:35:10.727Z,38.10
2017-11-15T08:37:39.289Z,27.97
2017-11-15T08:40:06.860Z,39.63
2017-11-15T08:42:34.438Z,37.57
2017-11-15T08:45:02.007Z,35.97
2017-11-15T08:47:29.582Z,39.60
2017-11-15T08:49:57.183Z,34.20
2017-11-15T08:52:24.921Z,33.20
2017-11-15T08:54:52.486Z,34.40
2017-11-15T08:57:20.117Z,38.20
2017-11-15T08:59:47.703Z,36.83
2017-11-15T09:02:15.283Z,39.07
2017-11-15T09:04:42.855Z,26.90
2017-11-15T09:07:10.424Z,35.67
2017-11-15T09:09:37.986Z,34.33
2017-11-15T09:12:05.607Z,27.90
2017-11-15T09:14:34.128Z,30.80
2017-11-15T09:17:01.697Z,28.33
2017-11-15T09:19:29.262Z,36.03
2017-11-15T09:21:56.829Z,33.37
2017-11-15T09:24:24.402Z,32.30
2017-11-15T09:26:51.979Z,33.53
2017-11-15T09:29:19.598Z,33.37
2017-11-15T09:31:47.257Z,28.37
2017-11-15T09:34:15.464Z,28.50
2017-11-15T09:36:43.842Z,38.43
2017-11-15T09:39:11.411Z,33.00
2017-11-15T09:41:38.978Z,33.13
2017-11-15T09:44:06.555Z,34.57
2017-11-15T09:46:34.121Z,31.13
2017-11-15T09:49:01.685Z,26.20
2017-11-15T09:51:30.098Z,29.53
2017-11-15T09:53:57.673Z,33.70
2017-11-15T09:56:25.241Z,32.10
2017-11-15T09:58:53.657Z,29.87
2017-11-15T10:01:21.306Z,29.30
2017-11-15T10:03:48.922Z,32.17
2017-11-15T10:06:16.486Z,32.23
2017-11-15T10:08:44.057Z,29.40
2017-11-15T10:11:11.789Z,30.23
2017-11-15T10:13:39.354Z,27.17
2017-11-15T10:16:06.954Z,25.87
2017-11-15T10:18:34.530Z,34.70
2017-11-15T10:21:02.097Z,27.50
2017-11-15T10:23:29.658Z,29.77
2017-11-15T10:25:57.269Z,24.53
2017-11-15T10:28:24.942Z,25.60
2017-11-15T10:30:52.521Z,34.10
2017-11-15T10:33:20.098Z,33.33
2017-11-15T10:35:47.661Z,26.90
2017-11-15T10:38:15.228Z,31.67
2017-11-15T10:40:42.825Z,24.20
2017-11-15T10:43:10.389Z,32.13
2017-11-15T10:45:38.067Z,33.57
2017-11-15T10:48:08.534Z,32.67
2017-11-15T10:50:36.109Z,25.40
2017-11-15T10:53:03.678Z,28.53
2017-11-15T10:55:31.254Z,32.13
2017-11-15T10:57:58.826Z,28.30
2017-11-15T11:00:32.006Z,28.00
2017-11-15T11:02:59.582Z,25.37
2017-11-15T11:05:27.157Z,28.70
2017-11-15T11:07:54.725Z,27.60
2017-11-15T11:10:22.305Z,30.87
2017-11-15T11:12:49.887Z,32.83
2017-11-15T11:15:17.502Z,27.53
2017-11-15T11:17:45.836Z,26.03
2017-11-15T11:20:13.408Z,26.93
2017-11-15T11:22:41.042Z,27.77
2017-11-15T11:25:08.626Z,26.47
2017-11-15T11:27:36.201Z,29.57
2017-11-15T11:30:04.478Z,27.93
2017-11-15T11:32:32.066Z,21.80
2017-11-15T11:34:59.645Z,26.03
2017-11-15T11:37:27.207Z,23.10
2017-11-15T11:39:54.790Z,28.60
2017-11-15T11:42:22.363Z,24.73
2017-11-15T11:44:49.955Z,23.67
2017-11-15T11:47:17.518Z,20.57
2017-11-15T11:49:45.789Z,25.13
2017-11-15T11:52:13.356Z,22.23
2017-11-15T11:54:41.821Z,22.10
2017-11-15T11:57:10.397Z,25.53
2017-11-15T11:59:37.966Z,26.50
2017-11-15T12:02:05.540Z,27.07
2017-11-15T12:04:33.237Z,23.63
2017-11-15T12:07:00.837Z,28.50
2017-11-15T12:09:28.410Z,27.80
2017-11-15T12:11:56.914Z,22.27
2017-11-15T12:14:24.477Z,20.93
2017-11-15T12:16:52.858Z,34.20
2017-11-15T12:19:21.118Z,31.47
2017-11-15T12:21:48.705Z,23.83
2017-11-15T12:24:17.090Z,23.83
2017-11-15T12:26:45.440Z,26.37
2017-11-15T12:29:13.130Z,26.00
2017-11-15T12:31:40.790Z,26.10
2017-11-15T12:34:08.448Z,26.10
2017-11-15T12:36:36.957Z,26.23
2017-11-15T12:39:05.244Z,29.70
2017-11-15T12:41:32.820Z,21.60
2017-11-15T12:44:00.392Z,25.73
2017-11-15T12:46:27.957Z,22.63
2017-11-15T12:48:55.528Z,26.30
2017-11-15T12:51:23.093Z,25.93
2017-11-15T12:53:50.671Z,24.77
2017-11-15T12:56:18.240Z,26.63
2017-11-15T12:58:45.824Z,21.33
2017-11-15T13:01:13.396Z,24.40
2017-11-15T13:03:41.025Z,24.23
2017-11-15T13:06:08.618Z,21.40
2017-11-15T13:08:36.186Z,22.90
2017-11-15T13:11:03.877Z,20.93
2017-11-15T13:13:31.447Z,25.53
2017-11-15T13:15:59.134Z,22.77
2017-11-15T13:18:26.712Z,28.80
2017-11-15T13:20:54.287Z,29.70
2017-11-15T13:23:21.913Z,27.97
2017-11-15T13:25:49.481Z,21.17
2017-11-15T13:28:17.056Z,26.13
2017-11-15T13:30:44.625Z,27.57
2017-11-15T13:33:12.193Z,28.70
2017-11-15T13:35:40.488Z,25.73
2017-11-15T13:38:08.057Z,21.73
2017-11-15T13:40:35.653Z,27.23
2017-11-15T13:43:03.329Z,22.20
2017-11-15T13:45:30.947Z,30.17
2017-11-15T13:47:58.513Z,20.73
2017-11-15T13:50:26.078Z,26.40
2017-11-15T13:52:53.654Z,34.80
2017-11-15T13:55:21.225Z,24.63
2017-11-15T13:57:48.801Z,27.43
2017-11-15T14:00:17.573Z,24.27
2017-11-15T14:02:45.160Z,33.90
2017-11-15T14:05:12.733Z,29.63
2017-11-15T14:07:40.354Z,28.57
2017-11-15T14:10:08.936Z,31.53
2017-11-15T14:12:37.286Z,31.40
2017-11-15T14:15:04.849Z,28.53
2017-11-15T14:17:33.258Z,30.43
2017-11-15T14:20:00.825Z,28.50
2017-11-15T14:22:28.433Z,36.03
2017-11-15T14:24:56.000Z,32.70
2017-11-15T14:27:24.421Z,26.27
2017-11-15T14:29:52.090Z,27.13
2017-11-15T14:32:19.753Z,33.80
2017-11-15T14:34:48.098Z,27.83
2017-11-15T14:37:15.706Z,39.50
2017-11-15T14:39:43.279Z,30.07
2017-11-15T14:42:10.849Z,36.70
2017-11-15T14:44:39.403Z,37.83
2017-11-15T14:47:06.985Z,31.40
2017-11-15T14:49:34.582Z,33.47
2017-11-15T14:52:02.143Z,28.00
2017-11-15T14:54:29.708Z,30.37
2017-11-15T14:56:57.308Z,36.47
2017-11-15T14:59:24.970Z,38.37
2017-11-15T15:01:52.541Z,38.57
2017-11-15T15:04:20.118Z,56.50
2017-11-15T15:06:48.366Z,44.37
2017-11-15T15:09:16.745Z,35.43
2017-11-15T15:11:45.085Z,35.43
2017-11-15T15:14:12.652Z,64.93
2017-11-15T15:16:40.214Z,31.40
2017-11-15T15:19:07.824Z,31.73
2017-11-15T15:21:35.391Z,36.23
2017-11-15T15:24:02.997Z,38.43
2017-11-15T15:26:30.565Z,29.23
2017-11-15T15:28:58.154Z,34.27
2017-11-15T15:31:25.817Z,33.80
2017-11-15T15:33:53.474Z,38.10
2017-11-15T15:36:21.955Z,34.40
2017-11-15T15:38:50.443Z,31.50
2017-11-15T15:41:19.025Z,39.23
2017-11-15T15:43:47.444Z,34.17
2017-11-15T15:46:15.012Z,37.67
2017-11-15T15:48:42.727Z,31.70
2017-11-15T15:51:10.331Z,39.50
2017-11-15T15:53:37.898Z,40.40
2017-11-15T15:56:05.462Z,40.00
2017-11-15T15:58:33.077Z,36.57
2017-11-15T16:01:00.644Z,39.97
2017-11-15T16:03:28.258Z,28.70
2017-11-15T16:05:56.753Z,40.27
2017-11-15T16:08:25.104Z,40.30
2017-11-15T16:10:53.374Z,36.10
2017-11-15T16:13:21.773Z,35.20
2017-11-15T16:15:49.343Z,34.23
2017-11-15T16:18:16.905Z,38.30
2017-11-15T16:20:44.473Z,36.33
2017-11-15T16:23:12.040Z,45.13
2017-11-15T16:25:40.498Z,41.57
2017-11-15T16:28:08.957Z,44.37
2017-11-15T16:30:36.528Z,38.97
2017-11-15T16:33:04.100Z,36.97
2017-11-15T16:35:31.663Z,28.70
2017-11-15T16:38:00.080Z,35.63
2017-11-15T16:40:28.557Z,36.87
2017-11-15T16:42:56.885Z,32.77
2017-11-15T16:45:24.452Z,38.00
2017-11-15T16:47:52.134Z,34.67
2017-11-15T16:50:19.707Z,30.20
2017-11-15T16:52:47.871Z,35.03
2017-11-15T16:55:16.285Z,37.83
2017-11-15T16:57:44.436Z,29.27
2017-11-15T17:00:13.807Z,29.63
2017-11-15T17:02:41.425Z,35.50
2017-11-15T17:05:08.996Z,38.30
2017-11-15T17:07:36.603Z,39.90
2017-11-15T17:10:04.188Z,40.33
2017-11-15T17:12:31.761Z,37.07
2017-11-15T17:14:59.332Z,33.10
2017-11-15T17:17:27.910Z,36.73
2017-11-15T17:19:56.266Z,39.77
2017-11-15T17:22:24.645Z,45.50
2017-11-15T17:24:52.213Z,37.40
2017-11-15T17:27:19.893Z,39.20
2017-11-15T17:29:47.461Z,45.87
2017-11-15T17:32:15.635Z,35.93
2017-11-15T17:34:44.129Z,34.87
2017-11-15T17:37:11.772Z,33.60
2017-11-15T17:39:40.219Z,35.90
2017-11-15T17:42:08.514Z,37.23
2017-11-15T17:44:36.657Z,49.47
2017-11-15T17:47:04.997Z,40.77
2017-11-15T17:49:32.567Z,56.93
2017-11-15T17:52:00.140Z,38.97
2017-11-15T17:54:27.731Z,44.13
2017-11-15T17:56:56.360Z,57.30
2017-11-15T17:59:25.787Z,39.43
2017-11-15T18:01:54.255Z,40.20
2017-11-15T18:04:21.902Z,37.37
2017-11-15T18:06:50.298Z,44.43
2017-11-15T18:09:19.229Z,46.40
2017-11-15T18:11:47.687Z,41.17
2017-11-15T18:14:15.825Z,38.27
2017-11-15T18:16:43.502Z,38.67
2017-11-15T18:19:11.099Z,40.80
2017-11-15T18:21:40.230Z,48.87
2017-11-15T18:24:08.718Z,44.57
2017-11-15T18:26:37.130Z,47.83
2017-11-15T18:29:05.493Z,56.30
2017-11-15T18:31:33.193Z,45.63
2017-11-15T18:34:01.471Z,50.10
2017-11-15T18:36:29.139Z,58.10
2017-11-15T18:38:56.713Z,47.33
2017-11-15T18:41:24.284Z,40.60
2017-11-15T18:43:52.461Z,56.50
2017-11-15T18:46:20.083Z,58.37
2017-11-15T18:48:48.434Z,48.23
2017-11-15T18:51:16.797Z,45.77
2017-11-15T18:53:44.370Z,51.93
2017-11-15T18:56:11.939Z,53.37
2017-11-15T18:58:39.502Z,63.07
2017-11-15T19:01:07.061Z,51.87
2017-11-15T19:03:35.480Z,46.97
2017-11-15T19:06:03.106Z,50.90
2017-11-15T19:08:30.937Z,61.80
2017-11-15T19:10:58.497Z,55.77
2017-11-15T19:13:27.027Z,53.07
2017-11-15T19:15:55.515Z,52.83
2017-11-15T19:18:23.846Z,52.50
2017-11-15T19:20:52.296Z,47.07
2017-11-15T19:23:20.820Z,44.17
2017-11-15T19:25:48.386Z,64.43
2017-11-15T19:28:15.952Z,66.60
2017-11-15T19:30:43.510Z,72.37
2017-11-15T19:33:11.188Z,43.47
2017-11-15T19:35:39.649Z,48.90
2017-11-15T19:38:08.150Z,61.33
2017-11-15T19:40:35.709Z,53.80
2017-11-15T19:43:03.273Z,61.57
2017-11-15T19:45:31.746Z,56.30
2017-11-15T19:48:00.091Z,53.10
2017-11-15T19:50:28.601Z,53.10
2017-11-15T19:52:56.866Z,55.23
2017-11-15T19:55:24.437Z,54.10
2017-11-15T19:57:52.017Z,68.77
2017-11-15T20:00:20.387Z,57.87
2017-11-15T20:02:48.774Z,54.10
2017-11-15T20:05:17.120Z,58.27
2017-11-15T20:07:44.710Z,51.93
2017-11-15T20:10:12.277Z,59.87
2017-11-15T20:12:39.899Z,66.17
2017-11-15T20:15:08.513Z,66.53
2017-11-15T20:17:36.857Z,62.90
2017-11-15T20:20:04.425Z,50.90
2017-11-15T20:22:31.994Z,49.63
2017-11-15T20:24:59.559Z,53.53
2017-11-15T20:27:27.126Z,43.67
2017-11-15T20:29:54.871Z,49.60
2017-11-15T20:32:22.489Z,54.50
2017-11-15T20:34:50.964Z,52.87
2017-11-15T20:37:19.315Z,55.55
2017-11-15T20:39:46.991Z,48.90
2017-11-15T20:42:14.593Z,48.97
2017-11-15T20:44:42.169Z,46.73
2017-11-15T20:47:09.735Z,51.30
2017-11-15T20:49:38.234Z,54.50
2017-11-15T20:52:06.599Z,48.60
2017-11-15T20:54:34.302Z,49.80
2017-11-15T20:57:02.681Z,48.83
2017-11-15T20:59:31.053Z,53.50
2017-11-15T21:01:59.545Z,56.57
2017-11-15T21:04:27.881Z,47.13
2017-11-15T21:06:56.245Z,47.97
2017-11-15T21:09:24.678Z,48.33
2017-11-15T21:11:53.270Z,50.23
2017-11-15T21:14:21.653Z,49.93
2017-11-15T21:16:50.042Z,41.47
2017-11-15T21:19:18.610Z,46.13
2017-11-15T21:21:47.198Z,39.93
2017-11-15T21:24:15.583Z,41.10
2017-11-15T21:26:43.942Z,51.33
2017-11-15T21:29:12.299Z,47.00
2017-11-15T21:31:39.901Z,43.37
2017-11-15T21:34:08.247Z,40.63
2017-11-15T21:36:36.610Z,58.03
2017-11-15T21:39:05.101Z,50.70
2017-11-15T21:41:32.667Z,54.43
2017-11-15T21:44:01.250Z,56.20
2017-11-15T21:46:29.659Z,44.43
2017-11-15T21:48:57.231Z,51.57
2017-11-15T21:51:25.669Z,44.03
2017-11-15T21:53:54.029Z,40.43
2017-11-15T21:56:22.405Z,46.77
2017-11-15T21:58:50.866Z,48.83
2017-11-15T22:01:18.473Z,42.33
2017-11-15T22:03:46.037Z,50.60
2017-11-15T22:06:13.597Z,43.50
2017-11-15T22:08:41.204Z,51.07
2017-11-15T22:11:09.606Z,44.97
2017-11-15T22:13:37.181Z,43.17
2017-11-15T22:16:05.632Z,45.50
2017-11-15T22:18:33.197Z,51.40
2017-11-15T22:21:01.652Z,42.93
2017-11-15T22:23:29.257Z,44.77
2017-11-15T22:25:56.814Z,44.53
2017-11-15T22:28:24.373Z,46.43
2017-11-15T22:30:52.732Z,47.70
2017-11-15T22:33:20.377Z,55.63
2017-11-15T22:35:47.945Z,47.70
2017-11-15T22:38:15.603Z,46.23
2017-11-15T22:40:43.202Z,61.10
2017-11-15T22:43:11.552Z,55.83
2017-11-15T22:45:39.834Z,51.70
2017-11-15T22:48:08.302Z,51.97
2017-11-15T22:50:35.879Z,61.33
2017-11-15T22:53:04.269Z,70.23
2017-11-15T22:55:32.606Z,68.67
2017-11-15T22:58:00.169Z,72.80
2017-11-15T23:00:27.732Z,58.40
2017-11-15T23:02:56.195Z,70.40
2017-11-15T23:05:24.496Z,63.80
2017-11-15T23:07:52.913Z,84.67
2017-11-15T23:10:20.482Z,98.07
2017-11-15T23:12:49.026Z,72.07
2017-11-15T23:15:17.377Z,77.73
2017-11-15T23:17:45.721Z,70.73
2017-11-15T23:20:13.284Z,73.30
2017-11-15T23:22:41.669Z,75.73
2017-11-15T23:25:10.029Z,81.83
2017-11-15T23:27:38.520Z,130.10
2017-11-15T23:30:06.092Z,118.07
2017-11-15T23:32:33.652Z,95.60
2017-11-15T23:35:01.949Z,89.20
2017-11-15T23:37:29.562Z,90.37
2017-11-15T23:39:57.146Z,96.77
2017-11-15T23:42:24.735Z,97.57
2017-11-15T23:44:52.337Z,75.23
2017-11-15T23:47:19.944Z,108.63
2017-11-15T23:49:47.513Z,115.83
2017-11-15T23:52:15.089Z,102.87
2017-11-15T23:54:42.673Z,102.50
2017-11-15T23:57:10.282Z,98.67
2017-11-15T23:59:37.844Z,151.63
